sensor_id;sensor_type;location;lat;lon;timestamp;P1;durP1;ratioP1;P2;durP2;ratioP2
46080;SDS011;31821;51.880;-0.518;2022-08-11T00:05:18;1.45;;;1.20;;
46080;SDS011;31821;51.880;-0.518;2022-08-11T00:10:21;1.60;;;1.20;;
46080;SDS011;31821;51.880;-0.518;2022-08-11T00:12:53;1.00;;;0.90;;
46080;SDS011;31821;51.880;-0.518;2022-08-11T00:15:22;1.13;;;1.00;;
46080;SDS011;31821;51.880;-0.518;2022-08-11T00:17:49;1.45;;;1.27;;
46080;SDS011;31821;51.880;-0.518;2022-08-11T00:20:21;1.17;;;1.05;;
46080;SDS011;31821;51.880;-0.518;2022-08-11T00:22:56;1.17;;;1.08;;
46080;SDS011;31821;51.880;-0.518;2022-08-11T00:25:26;1.70;;;1.20;;
46080;SDS011;31821;51.880;-0.518;2022-08-11T00:27:52;1.52;;;1.08;;
46080;SDS011;31821;51.880;-0.518;2022-08-11T00:30:18;1.38;;;1.10;;
46080;SDS011;31821;51.880;-0.518;2022-08-11T00:32:45;1.17;;;1.08;;
46080;SDS011;31821;51.880;-0.518;2022-08-11T00:35:21;2.05;;;1.50;;
46080;SDS011;31821;51.880;-0.518;2022-08-11T00:37:50;1.30;;;0.90;;
46080;SDS011;31821;51.880;-0.518;2022-08-11T00:40:22;1.10;;;1.00;;
46080;SDS011;31821;51.880;-0.518;2022-08-11T00:45:41;2.05;;;1.30;;
46080;SDS011;31821;51.880;-0.518;2022-08-11T00:59:47;1.00;;;0.93;;
46080;SDS011;31821;51.880;-0.518;2022-08-11T01:08:28;1.15;;;0.95;;
46080;SDS011;31821;51.880;-0.518;2022-08-11T01:22:22;1.10;;;1.00;;
46080;SDS011;31821;51.880;-0.518;2022-08-11T01:30:30;1.20;;;1.10;;
46080;SDS011;31821;51.880;-0.518;2022-08-11T01:58:49;1.20;;;1.10;;
46080;SDS011;31821;51.880;-0.518;2022-08-11T02:04:08;1.00;;;0.90;;
46080;SDS011;31821;51.880;-0.518;2022-08-11T02:07:30;0.88;;;0.80;;
46080;SDS011;31821;51.880;-0.518;2022-08-11T02:12:15;1.50;;;1.40;;
46080;SDS011;31821;51.880;-0.518;2022-08-11T02:14:45;1.23;;;1.13;;
46080;SDS011;31821;51.880;-0.518;2022-08-11T02:17:37;1.02;;;0.93;;
46080;SDS011;31821;51.880;-0.518;2022-08-11T02:23:10;1.05;;;0.95;;
46080;SDS011;31821;51.880;-0.518;2022-08-11T02:31:28;1.30;;;1.20;;
46080;SDS011;31821;51.880;-0.518;2022-08-11T02:34:37;1.20;;;1.10;;
46080;SDS011;31821;51.880;-0.518;2022-08-11T02:48:00;1.83;;;1.17;;
46080;SDS011;31821;51.880;-0.518;2022-08-11T02:53:48;1.20;;;1.10;;
46080;SDS011;31821;51.880;-0.518;2022-08-11T02:59:22;1.10;;;0.95;;
46080;SDS011;31821;51.880;-0.518;2022-08-11T03:08:21;1.30;;;1.10;;
46080;SDS011;31821;51.880;-0.518;2022-08-11T03:11:06;1.17;;;1.08;;
46080;SDS011;31821;51.880;-0.518;2022-08-11T03:25:18;0.93;;;0.90;;
46080;SDS011;31821;51.880;-0.518;2022-08-11T03:33:59;1.10;;;1.00;;
46080;SDS011;31821;51.880;-0.518;2022-08-11T03:42:17;1.00;;;0.90;;
46080;SDS011;31821;51.880;-0.518;2022-08-11T04:12:17;1.48;;;1.00;;
46080;SDS011;31821;51.880;-0.518;2022-08-11T04:35:38;1.17;;;1.00;;
46080;SDS011;31821;51.880;-0.518;2022-08-11T04:41:17;1.08;;;0.98;;
46080;SDS011;31821;51.880;-0.518;2022-08-11T04:49:33;1.00;;;0.90;;
46080;SDS011;31821;51.880;-0.518;2022-08-11T04:58:59;1.05;;;0.95;;
46080;SDS011;31821;51.880;-0.518;2022-08-11T05:10:42;1.17;;;0.95;;
46080;SDS011;31821;51.880;-0.518;2022-08-11T05:16:29;1.13;;;1.02;;
46080;SDS011;31821;51.880;-0.518;2022-08-11T05:19:19;1.00;;;0.90;;
46080;SDS011;31821;51.880;-0.518;2022-08-11T05:22:08;1.15;;;1.00;;
46080;SDS011;31821;51.880;-0.518;2022-08-11T05:25:00;1.13;;;1.02;;
46080;SDS011;31821;51.880;-0.518;2022-08-11T05:28:29;1.00;;;0.90;;
46080;SDS011;31821;51.880;-0.518;2022-08-11T05:31:08;1.17;;;1.08;;
46080;SDS011;31821;51.880;-0.518;2022-08-11T05:33:57;1.08;;;0.98;;
46080;SDS011;31821;51.880;-0.518;2022-08-11T05:36:48;1.25;;;1.15;;
46080;SDS011;31821;51.880;-0.518;2022-08-11T05:39:24;1.23;;;1.13;;
46080;SDS011;31821;51.880;-0.518;2022-08-11T05:42:10;1.10;;;0.95;;
46080;SDS011;31821;51.880;-0.518;2022-08-11T05:44:56;1.38;;;1.20;;
46080;SDS011;31821;51.880;-0.518;2022-08-11T05:47:49;1.40;;;1.17;;
46080;SDS011;31821;51.880;-0.518;2022-08-11T05:50:34;1.15;;;1.05;;
46080;SDS011;31821;51.880;-0.518;2022-08-11T05:53:19;1.20;;;1.10;;
46080;SDS011;31821;51.880;-0.518;2022-08-11T05:56:04;1.23;;;1.00;;
46080;SDS011;31821;51.880;-0.518;2022-08-11T05:58:42;1.58;;;1.20;;
46080;SDS011;31821;51.880;-0.518;2022-08-11T06:01:11;1.30;;;1.20;;
46080;SDS011;31821;51.880;-0.518;2022-08-11T06:03:44;1.17;;;1.08;;
46080;SDS011;31821;51.880;-0.518;2022-08-11T06:06:33;1.65;;;1.20;;
46080;SDS011;31821;51.880;-0.518;2022-08-11T06:09:00;1.90;;;1.50;;
46080;SDS011;31821;51.880;-0.518;2022-08-11T06:11:26;2.60;;;1.60;;
46080;SDS011;31821;51.880;-0.518;2022-08-11T06:13:53;1.80;;;1.40;;
46080;SDS011;31821;51.880;-0.518;2022-08-11T06:16:24;1.40;;;1.30;;
46080;SDS011;31821;51.880;-0.518;2022-08-11T06:18:52;2.72;;;1.13;;
46080;SDS011;31821;51.880;-0.518;2022-08-11T06:21:18;2.08;;;1.30;;
46080;SDS011;31821;51.880;-0.518;2022-08-11T06:23:46;1.25;;;1.15;;
46080;SDS011;31821;51.880;-0.518;2022-08-11T06:26:12;1.10;;;1.00;;
46080;SDS011;31821;51.880;-0.518;2022-08-11T06:28:40;1.63;;;1.30;;
46080;SDS011;31821;51.880;-0.518;2022-08-11T06:31:14;1.33;;;1.23;;
46080;SDS011;31821;51.880;-0.518;2022-08-11T06:36:54;1.33;;;1.17;;
46080;SDS011;31821;51.880;-0.518;2022-08-11T06:39:49;1.42;;;1.33;;
46080;SDS011;31821;51.880;-0.518;2022-08-11T06:42:33;1.50;;;1.40;;
46080;SDS011;31821;51.880;-0.518;2022-08-11T06:47:52;1.35;;;1.25;;
46080;SDS011;31821;51.880;-0.518;2022-08-11T06:50:20;1.58;;;1.20;;
46080;SDS011;31821;51.880;-0.518;2022-08-11T06:53:06;1.33;;;1.20;;
46080;SDS011;31821;51.880;-0.518;2022-08-11T06:55:34;1.35;;;1.15;;
46080;SDS011;31821;51.880;-0.518;2022-08-11T06:58:21;1.20;;;1.10;;
46080;SDS011;31821;51.880;-0.518;2022-08-11T07:01:10;1.05;;;0.98;;
46080;SDS011;31821;51.880;-0.518;2022-08-11T07:03:39;1.55;;;0.98;;
46080;SDS011;31821;51.880;-0.518;2022-08-11T07:06:27;1.30;;;0.97;;
46080;SDS011;31821;51.880;-0.518;2022-08-11T07:15:24;1.30;;;1.00;;
46080;SDS011;31821;51.880;-0.518;2022-08-11T07:18:24;1.45;;;1.10;;
46080;SDS011;31821;51.880;-0.518;2022-08-11T07:21:13;1.15;;;1.00;;
46080;SDS011;31821;51.880;-0.518;2022-08-11T07:24:02;1.50;;;1.20;;
46080;SDS011;31821;51.880;-0.518;2022-08-11T07:26:54;0.90;;;0.90;;
46080;SDS011;31821;51.880;-0.518;2022-08-11T07:29:40;1.08;;;0.93;;
46080;SDS011;31821;51.880;-0.518;2022-08-11T07:32:14;1.10;;;1.00;;
46080;SDS011;31821;51.880;-0.518;2022-08-11T07:34:51;1.05;;;0.90;;
46080;SDS011;31821;51.880;-0.518;2022-08-11T07:37:22;1.25;;;1.15;;
46080;SDS011;31821;51.880;-0.518;2022-08-11T07:39:50;1.10;;;1.00;;
46080;SDS011;31821;51.880;-0.518;2022-08-11T07:42:22;1.10;;;1.00;;
46080;SDS011;31821;51.880;-0.518;2022-08-11T07:44:52;0.90;;;0.90;;
46080;SDS011;31821;51.880;-0.518;2022-08-11T07:47:39;1.40;;;1.10;;
46080;SDS011;31821;51.880;-0.518;2022-08-11T07:50:40;1.20;;;1.10;;
46080;SDS011;31821;51.880;-0.518;2022-08-11T07:53:26;1.23;;;1.13;;
46080;SDS011;31821;51.880;-0.518;2022-08-11T07:55:53;1.20;;;1.10;;
46080;SDS011;31821;51.880;-0.518;2022-08-11T07:58:21;1.30;;;1.20;;
46080;SDS011;31821;51.880;-0.518;2022-08-11T08:01:06;1.20;;;1.10;;
46080;SDS011;31821;51.880;-0.518;2022-08-11T08:03:51;1.30;;;1.10;;
46080;SDS011;31821;51.880;-0.518;2022-08-11T08:06:36;1.20;;;1.10;;
46080;SDS011;31821;51.880;-0.518;2022-08-11T08:09:22;1.30;;;1.20;;
46080;SDS011;31821;51.880;-0.518;2022-08-11T08:12:07;2.35;;;1.58;;
46080;SDS011;31821;51.880;-0.518;2022-08-11T08:14:52;3.13;;;1.65;;
46080;SDS011;31821;51.880;-0.518;2022-08-11T08:17:39;2.53;;;1.80;;
46080;SDS011;31821;51.880;-0.518;2022-08-11T08:20:43;2.30;;;1.60;;
46080;SDS011;31821;51.880;-0.518;2022-08-11T08:23:10;2.95;;;2.00;;
46080;SDS011;31821;51.880;-0.518;2022-08-11T08:25:38;3.00;;;2.05;;
46080;SDS011;31821;51.880;-0.518;2022-08-11T08:28:06;2.22;;;1.83;;
46080;SDS011;31821;51.880;-0.518;2022-08-11T08:30:34;3.38;;;1.88;;
46080;SDS011;31821;51.880;-0.518;2022-08-11T08:33:20;2.83;;;1.80;;
46080;SDS011;31821;51.880;-0.518;2022-08-11T08:35:52;2.20;;;1.45;;
46080;SDS011;31821;51.880;-0.518;2022-08-11T08:38:42;1.50;;;1.35;;
46080;SDS011;31821;51.880;-0.518;2022-08-11T08:41:12;1.63;;;1.38;;
46080;SDS011;31821;51.880;-0.518;2022-08-11T08:43:41;1.60;;;1.33;;
46080;SDS011;31821;51.880;-0.518;2022-08-11T08:46:09;1.50;;;1.20;;
46080;SDS011;31821;51.880;-0.518;2022-08-11T08:48:38;2.20;;;1.50;;
46080;SDS011;31821;51.880;-0.518;2022-08-11T08:51:09;1.85;;;1.30;;
46080;SDS011;31821;51.880;-0.518;2022-08-11T08:53:55;1.50;;;1.33;;
46080;SDS011;31821;51.880;-0.518;2022-08-11T08:56:28;1.58;;;1.27;;
46080;SDS011;31821;51.880;-0.518;2022-08-11T08:58:54;2.45;;;1.35;;
46080;SDS011;31821;51.880;-0.518;2022-08-11T09:01:22;2.47;;;1.45;;
46080;SDS011;31821;51.880;-0.518;2022-08-11T09:03:50;1.42;;;1.20;;
46080;SDS011;31821;51.880;-0.518;2022-08-11T09:06:16;1.73;;;1.30;;
46080;SDS011;31821;51.880;-0.518;2022-08-11T09:08:43;2.30;;;1.67;;
46080;SDS011;31821;51.880;-0.518;2022-08-11T09:11:09;1.40;;;1.30;;
46080;SDS011;31821;51.880;-0.518;2022-08-11T09:13:55;1.50;;;1.30;;
46080;SDS011;31821;51.880;-0.518;2022-08-11T09:16:20;1.90;;;1.60;;
46080;SDS011;31821;51.880;-0.518;2022-08-11T09:18:48;1.48;;;1.38;;
46080;SDS011;31821;51.880;-0.518;2022-08-11T09:21:15;2.60;;;1.40;;
46080;SDS011;31821;51.880;-0.518;2022-08-11T09:23:44;1.85;;;1.35;;
46080;SDS011;31821;51.880;-0.518;2022-08-11T09:26:29;1.98;;;1.50;;
46080;SDS011;31821;51.880;-0.518;2022-08-11T09:29:31;2.10;;;1.50;;
46080;SDS011;31821;51.880;-0.518;2022-08-11T09:31:57;1.90;;;1.50;;
46080;SDS011;31821;51.880;-0.518;2022-08-11T09:34:24;1.48;;;1.23;;
46080;SDS011;31821;51.880;-0.518;2022-08-11T09:36:50;1.63;;;1.33;;
46080;SDS011;31821;51.880;-0.518;2022-08-11T09:39:36;1.92;;;1.50;;
46080;SDS011;31821;51.880;-0.518;2022-08-11T09:42:23;1.55;;;1.40;;
46080;SDS011;31821;51.880;-0.518;2022-08-11T09:45:12;1.70;;;1.38;;
46080;SDS011;31821;51.880;-0.518;2022-08-11T09:47:40;1.33;;;1.10;;
46080;SDS011;31821;51.880;-0.518;2022-08-11T09:50:08;1.30;;;1.20;;
46080;SDS011;31821;51.880;-0.518;2022-08-11T09:52:37;2.00;;;1.42;;
46080;SDS011;31821;51.880;-0.518;2022-08-11T09:55:04;1.92;;;1.30;;
46080;SDS011;31821;51.880;-0.518;2022-08-11T09:57:37;2.15;;;1.60;;
46080;SDS011;31821;51.880;-0.518;2022-08-11T10:00:27;1.55;;;1.42;;
46080;SDS011;31821;51.880;-0.518;2022-08-11T10:05:21;2.13;;;1.50;;
46080;SDS011;31821;51.880;-0.518;2022-08-11T10:08:07;1.70;;;1.40;;
46080;SDS011;31821;51.880;-0.518;2022-08-11T10:10:37;1.52;;;1.42;;
46080;SDS011;31821;51.880;-0.518;2022-08-11T10:13:05;1.80;;;1.60;;
46080;SDS011;31821;51.880;-0.518;2022-08-11T10:15:33;1.67;;;1.27;;
46080;SDS011;31821;51.880;-0.518;2022-08-11T10:18:10;2.70;;;1.52;;
46080;SDS011;31821;51.880;-0.518;2022-08-11T10:21:00;2.00;;;1.30;;
46080;SDS011;31821;51.880;-0.518;2022-08-11T10:23:34;1.80;;;1.58;;
46080;SDS011;31821;51.880;-0.518;2022-08-11T10:26:20;1.63;;;1.48;;
46080;SDS011;31821;51.880;-0.518;2022-08-11T10:29:05;1.90;;;1.42;;
46080;SDS011;31821;51.880;-0.518;2022-08-11T10:31:54;1.60;;;1.40;;
46080;SDS011;31821;51.880;-0.518;2022-08-11T10:34:40;1.70;;;1.60;;
46080;SDS011;31821;51.880;-0.518;2022-08-11T10:37:10;2.17;;;1.67;;
46080;SDS011;31821;51.880;-0.518;2022-08-11T10:39:37;3.88;;;1.88;;
46080;SDS011;31821;51.880;-0.518;2022-08-11T10:42:04;2.22;;;1.48;;
46080;SDS011;31821;51.880;-0.518;2022-08-11T10:44:50;1.52;;;1.33;;
46080;SDS011;31821;51.880;-0.518;2022-08-11T10:47:18;2.08;;;1.65;;
46080;SDS011;31821;51.880;-0.518;2022-08-11T10:50:00;1.75;;;1.40;;
46080;SDS011;31821;51.880;-0.518;2022-08-11T10:52:46;2.17;;;1.60;;
46080;SDS011;31821;51.880;-0.518;2022-08-11T10:55:32;1.58;;;1.48;;
46080;SDS011;31821;51.880;-0.518;2022-08-11T10:58:17;1.70;;;1.50;;
46080;SDS011;31821;51.880;-0.518;2022-08-11T11:01:02;1.60;;;1.33;;
46080;SDS011;31821;51.880;-0.518;2022-08-11T11:03:29;2.33;;;1.60;;
46080;SDS011;31821;51.880;-0.518;2022-08-11T11:06:08;1.63;;;1.42;;
46080;SDS011;31821;51.880;-0.518;2022-08-11T11:09:04;1.98;;;1.60;;
46080;SDS011;31821;51.880;-0.518;2022-08-11T11:11:38;2.70;;;1.50;;
46080;SDS011;31821;51.880;-0.518;2022-08-11T11:14:31;2.33;;;1.40;;
46080;SDS011;31821;51.880;-0.518;2022-08-11T11:21:08;1.50;;;1.40;;
46080;SDS011;31821;51.880;-0.518;2022-08-11T11:23:33;1.45;;;1.35;;
46080;SDS011;31821;51.880;-0.518;2022-08-11T11:31:40;2.05;;;1.40;;
46080;SDS011;31821;51.880;-0.518;2022-08-11T11:37:15;1.73;;;1.42;;
46080;SDS011;31821;51.880;-0.518;2022-08-11T11:39:41;1.85;;;1.40;;
46080;SDS011;31821;51.880;-0.518;2022-08-11T11:42:08;1.52;;;1.30;;
46080;SDS011;31821;51.880;-0.518;2022-08-11T11:44:36;2.20;;;1.58;;
46080;SDS011;31821;51.880;-0.518;2022-08-11T11:47:03;2.13;;;1.40;;
46080;SDS011;31821;51.880;-0.518;2022-08-11T11:49:30;3.15;;;1.67;;
46080;SDS011;31821;51.880;-0.518;2022-08-11T11:51:57;2.00;;;1.55;;
46080;SDS011;31821;51.880;-0.518;2022-08-11T11:54:25;2.97;;;1.75;;
46080;SDS011;31821;51.880;-0.518;2022-08-11T11:56:53;2.72;;;1.88;;
46080;SDS011;31821;51.880;-0.518;2022-08-11T11:59:21;2.88;;;1.48;;
46080;SDS011;31821;51.880;-0.518;2022-08-11T12:02:08;2.63;;;1.67;;
46080;SDS011;31821;51.880;-0.518;2022-08-11T12:04:37;1.63;;;1.48;;
46080;SDS011;31821;51.880;-0.518;2022-08-11T12:07:08;1.90;;;1.55;;
46080;SDS011;31821;51.880;-0.518;2022-08-11T12:09:54;2.67;;;1.60;;
46080;SDS011;31821;51.880;-0.518;2022-08-11T12:12:22;1.73;;;1.50;;
46080;SDS011;31821;51.880;-0.518;2022-08-11T12:15:08;1.90;;;1.50;;
46080;SDS011;31821;51.880;-0.518;2022-08-11T12:17:34;2.35;;;1.77;;
46080;SDS011;31821;51.880;-0.518;2022-08-11T12:20:01;2.03;;;1.48;;
46080;SDS011;31821;51.880;-0.518;2022-08-11T12:22:28;1.60;;;1.50;;
46080;SDS011;31821;51.880;-0.518;2022-08-11T12:25:13;2.38;;;1.55;;
46080;SDS011;31821;51.880;-0.518;2022-08-11T12:27:58;1.60;;;1.40;;
46080;SDS011;31821;51.880;-0.518;2022-08-11T12:30:25;1.88;;;1.60;;
46080;SDS011;31821;51.880;-0.518;2022-08-11T12:32:51;1.63;;;1.52;;
46080;SDS011;31821;51.880;-0.518;2022-08-11T12:35:17;2.83;;;1.80;;
46080;SDS011;31821;51.880;-0.518;2022-08-11T12:37:44;1.63;;;1.30;;
46080;SDS011;31821;51.880;-0.518;2022-08-11T12:40:15;2.03;;;1.60;;
46080;SDS011;31821;51.880;-0.518;2022-08-11T12:43:05;1.80;;;1.60;;
46080;SDS011;31821;51.880;-0.518;2022-08-11T12:50:07;1.92;;;1.73;;
46080;SDS011;31821;51.880;-0.518;2022-08-11T12:53:02;2.38;;;1.67;;
46080;SDS011;31821;51.880;-0.518;2022-08-11T12:55:31;2.40;;;1.67;;
46080;SDS011;31821;51.880;-0.518;2022-08-11T12:58:16;2.75;;;1.50;;
46080;SDS011;31821;51.880;-0.518;2022-08-11T13:00:45;2.67;;;1.48;;
46080;SDS011;31821;51.880;-0.518;2022-08-11T13:03:33;1.70;;;1.50;;
46080;SDS011;31821;51.880;-0.518;2022-08-11T13:06:18;2.10;;;1.42;;
46080;SDS011;31821;51.880;-0.518;2022-08-11T13:08:47;3.45;;;1.90;;
46080;SDS011;31821;51.880;-0.518;2022-08-11T13:11:15;2.00;;;1.80;;
46080;SDS011;31821;51.880;-0.518;2022-08-11T13:14:00;2.00;;;1.50;;
46080;SDS011;31821;51.880;-0.518;2022-08-11T13:16:30;2.13;;;1.65;;
46080;SDS011;31821;51.880;-0.518;2022-08-11T13:19:20;1.95;;;1.63;;
46080;SDS011;31821;51.880;-0.518;2022-08-11T13:21:50;2.20;;;1.60;;
46080;SDS011;31821;51.880;-0.518;2022-08-11T13:24:17;2.05;;;1.60;;
46080;SDS011;31821;51.880;-0.518;2022-08-11T13:26:45;1.88;;;1.70;;
46080;SDS011;31821;51.880;-0.518;2022-08-11T13:29:17;2.17;;;1.70;;
46080;SDS011;31821;51.880;-0.518;2022-08-11T13:31:45;2.00;;;1.80;;
46080;SDS011;31821;51.880;-0.518;2022-08-11T13:34:11;2.20;;;1.80;;
46080;SDS011;31821;51.880;-0.518;2022-08-11T13:36:38;2.40;;;1.95;;
46080;SDS011;31821;51.880;-0.518;2022-08-11T13:39:05;2.80;;;1.85;;
46080;SDS011;31821;51.880;-0.518;2022-08-11T13:41:31;2.83;;;1.70;;
46080;SDS011;31821;51.880;-0.518;2022-08-11T13:46:33;4.53;;;2.10;;
46080;SDS011;31821;51.880;-0.518;2022-08-11T13:48:59;4.13;;;1.83;;
46080;SDS011;31821;51.880;-0.518;2022-08-11T13:51:27;1.60;;;1.50;;
46080;SDS011;31821;51.880;-0.518;2022-08-11T13:53:55;1.42;;;1.30;;
46080;SDS011;31821;51.880;-0.518;2022-08-11T13:56:32;1.77;;;1.48;;
46080;SDS011;31821;51.880;-0.518;2022-08-11T13:59:00;1.92;;;1.55;;
46080;SDS011;31821;51.880;-0.518;2022-08-11T14:01:31;2.55;;;1.50;;
46080;SDS011;31821;51.880;-0.518;2022-08-11T14:04:02;2.20;;;1.55;;
46080;SDS011;31821;51.880;-0.518;2022-08-11T14:06:32;2.40;;;1.50;;
46080;SDS011;31821;51.880;-0.518;2022-08-11T14:09:01;1.63;;;1.50;;
46080;SDS011;31821;51.880;-0.518;2022-08-11T14:11:31;1.75;;;1.60;;
46080;SDS011;31821;51.880;-0.518;2022-08-11T14:14:18;2.67;;;1.70;;
46080;SDS011;31821;51.880;-0.518;2022-08-11T14:16:48;2.05;;;1.60;;
46080;SDS011;31821;51.880;-0.518;2022-08-11T14:19:16;1.85;;;1.55;;
46080;SDS011;31821;51.880;-0.518;2022-08-11T14:21:45;2.33;;;1.63;;
46080;SDS011;31821;51.880;-0.518;2022-08-11T14:24:31;1.90;;;1.60;;
46080;SDS011;31821;51.880;-0.518;2022-08-11T14:26:58;2.30;;;1.63;;
46080;SDS011;31821;51.880;-0.518;2022-08-11T14:29:25;1.60;;;1.50;;
46080;SDS011;31821;51.880;-0.518;2022-08-11T14:31:56;1.92;;;1.45;;
46080;SDS011;31821;51.880;-0.518;2022-08-11T14:34:26;1.92;;;1.38;;
46080;SDS011;31821;51.880;-0.518;2022-08-11T14:37:06;1.77;;;1.60;;
46080;SDS011;31821;51.880;-0.518;2022-08-11T14:39:49;1.98;;;1.50;;
46080;SDS011;31821;51.880;-0.518;2022-08-11T14:42:18;1.50;;;1.40;;
46080;SDS011;31821;51.880;-0.518;2022-08-11T14:45:11;1.65;;;1.55;;
46080;SDS011;31821;51.880;-0.518;2022-08-11T14:47:58;1.50;;;1.30;;
46080;SDS011;31821;51.880;-0.518;2022-08-11T14:50:29;1.83;;;1.42;;
46080;SDS011;31821;51.880;-0.518;2022-08-11T14:53:00;2.05;;;1.50;;
46080;SDS011;31821;51.880;-0.518;2022-08-11T14:55:30;1.77;;;1.60;;
46080;SDS011;31821;51.880;-0.518;2022-08-11T14:58:25;1.60;;;1.50;;
46080;SDS011;31821;51.880;-0.518;2022-08-11T15:00:56;1.63;;;1.50;;
46080;SDS011;31821;51.880;-0.518;2022-08-11T15:03:26;2.20;;;1.50;;
46080;SDS011;31821;51.880;-0.518;2022-08-11T15:05:55;1.70;;;1.60;;
46080;SDS011;31821;51.880;-0.518;2022-08-11T15:08:34;2.78;;;2.10;;
46080;SDS011;31821;51.880;-0.518;2022-08-11T15:11:24;2.28;;;1.60;;
46080;SDS011;31821;51.880;-0.518;2022-08-11T15:14:16;1.67;;;1.50;;
46080;SDS011;31821;51.880;-0.518;2022-08-11T15:17:04;1.42;;;1.33;;
46080;SDS011;31821;51.880;-0.518;2022-08-11T15:19:33;3.63;;;2.03;;
46080;SDS011;31821;51.880;-0.518;2022-08-11T15:22:00;1.90;;;1.58;;
46080;SDS011;31821;51.880;-0.518;2022-08-11T15:24:45;1.77;;;1.30;;
46080;SDS011;31821;51.880;-0.518;2022-08-11T15:27:12;1.92;;;1.50;;
46080;SDS011;31821;51.880;-0.518;2022-08-11T15:30:00;1.83;;;1.50;;
46080;SDS011;31821;51.880;-0.518;2022-08-11T15:32:45;2.60;;;1.58;;
46080;SDS011;31821;51.880;-0.518;2022-08-11T15:35:31;1.70;;;1.40;;
46080;SDS011;31821;51.880;-0.518;2022-08-11T15:38:19;3.47;;;1.58;;
46080;SDS011;31821;51.880;-0.518;2022-08-11T15:40:46;1.63;;;1.42;;
46080;SDS011;31821;51.880;-0.518;2022-08-11T15:43:34;1.73;;;1.30;;
46080;SDS011;31821;51.880;-0.518;2022-08-11T15:52:12;1.83;;;1.48;;
46080;SDS011;31821;51.880;-0.518;2022-08-11T15:54:42;1.75;;;1.25;;
46080;SDS011;31821;51.880;-0.518;2022-08-11T15:57:12;2.03;;;1.55;;
46080;SDS011;31821;51.880;-0.518;2022-08-11T16:00:02;2.35;;;1.50;;
46080;SDS011;31821;51.880;-0.518;2022-08-11T16:02:48;2.00;;;1.40;;
46080;SDS011;31821;51.880;-0.518;2022-08-11T16:05:34;1.65;;;1.30;;
46080;SDS011;31821;51.880;-0.518;2022-08-11T16:08:01;3.50;;;1.30;;
46080;SDS011;31821;51.880;-0.518;2022-08-11T16:10:28;2.30;;;1.40;;
46080;SDS011;31821;51.880;-0.518;2022-08-11T16:13:01;3.50;;;1.90;;
46080;SDS011;31821;51.880;-0.518;2022-08-11T16:15:33;3.97;;;1.90;;
46080;SDS011;31821;51.880;-0.518;2022-08-11T16:18:20;3.25;;;1.50;;
46080;SDS011;31821;51.880;-0.518;2022-08-11T16:21:06;1.77;;;1.60;;
46080;SDS011;31821;51.880;-0.518;2022-08-11T16:23:38;1.50;;;1.40;;
46080;SDS011;31821;51.880;-0.518;2022-08-11T16:26:05;2.20;;;1.73;;
46080;SDS011;31821;51.880;-0.518;2022-08-11T16:28:33;1.70;;;1.30;;
46080;SDS011;31821;51.880;-0.518;2022-08-11T16:31:00;1.80;;;1.45;;
46080;SDS011;31821;51.880;-0.518;2022-08-11T16:33:27;2.15;;;1.33;;
46080;SDS011;31821;51.880;-0.518;2022-08-11T16:35:54;3.30;;;1.70;;
46080;SDS011;31821;51.880;-0.518;2022-08-11T16:38:40;1.50;;;1.40;;
46080;SDS011;31821;51.880;-0.518;2022-08-11T16:41:16;2.17;;;1.50;;
46080;SDS011;31821;51.880;-0.518;2022-08-11T16:44:06;1.90;;;1.42;;
46080;SDS011;31821;51.880;-0.518;2022-08-11T16:46:56;2.13;;;1.40;;
46080;SDS011;31821;51.880;-0.518;2022-08-11T16:49:30;1.80;;;1.50;;
46080;SDS011;31821;51.880;-0.518;2022-08-11T16:52:07;1.55;;;1.30;;
46080;SDS011;31821;51.880;-0.518;2022-08-11T16:54:36;1.45;;;1.25;;
46080;SDS011;31821;51.880;-0.518;2022-08-11T16:57:04;2.38;;;1.40;;
46080;SDS011;31821;51.880;-0.518;2022-08-11T16:59:55;2.55;;;1.52;;
46080;SDS011;31821;51.880;-0.518;2022-08-11T17:02:27;1.52;;;1.40;;
46080;SDS011;31821;51.880;-0.518;2022-08-11T17:05:16;1.73;;;1.48;;
46080;SDS011;31821;51.880;-0.518;2022-08-11T17:08:02;1.30;;;1.15;;
46080;SDS011;31821;51.880;-0.518;2022-08-11T17:10:51;1.45;;;1.35;;
46080;SDS011;31821;51.880;-0.518;2022-08-11T17:13:57;1.83;;;1.20;;
46080;SDS011;31821;51.880;-0.518;2022-08-11T17:16:31;1.58;;;1.40;;
46080;SDS011;31821;51.880;-0.518;2022-08-11T17:19:00;1.63;;;1.52;;
46080;SDS011;31821;51.880;-0.518;2022-08-11T17:21:37;1.98;;;1.50;;
46080;SDS011;31821;51.880;-0.518;2022-08-11T17:24:25;1.55;;;1.38;;
46080;SDS011;31821;51.880;-0.518;2022-08-11T17:26:52;1.80;;;1.45;;
46080;SDS011;31821;51.880;-0.518;2022-08-11T17:29:26;1.35;;;1.17;;
46080;SDS011;31821;51.880;-0.518;2022-08-11T17:31:56;1.70;;;1.60;;
46080;SDS011;31821;51.880;-0.518;2022-08-11T17:34:43;1.45;;;1.30;;
46080;SDS011;31821;51.880;-0.518;2022-08-11T17:37:30;2.22;;;1.50;;
46080;SDS011;31821;51.880;-0.518;2022-08-11T17:39:57;2.00;;;1.52;;
46080;SDS011;31821;51.880;-0.518;2022-08-11T17:42:27;1.95;;;1.30;;
46080;SDS011;31821;51.880;-0.518;2022-08-11T17:45:14;1.52;;;1.33;;
46080;SDS011;31821;51.880;-0.518;2022-08-11T17:47:59;1.60;;;1.27;;
46080;SDS011;31821;51.880;-0.518;2022-08-11T17:50:44;1.40;;;1.30;;
46080;SDS011;31821;51.880;-0.518;2022-08-11T17:53:12;2.30;;;1.65;;
46080;SDS011;31821;51.880;-0.518;2022-08-11T17:55:59;2.88;;;1.52;;
46080;SDS011;31821;51.880;-0.518;2022-08-11T17:58:45;1.40;;;1.30;;
46080;SDS011;31821;51.880;-0.518;2022-08-11T18:01:31;1.48;;;1.38;;
46080;SDS011;31821;51.880;-0.518;2022-08-11T18:03:59;1.70;;;1.30;;
46080;SDS011;31821;51.880;-0.518;2022-08-11T18:06:28;1.88;;;1.50;;
46080;SDS011;31821;51.880;-0.518;2022-08-11T18:08:56;1.63;;;1.42;;
46080;SDS011;31821;51.880;-0.518;2022-08-11T18:11:42;2.45;;;1.40;;
46080;SDS011;31821;51.880;-0.518;2022-08-11T18:14:29;1.95;;;1.58;;
46080;SDS011;31821;51.880;-0.518;2022-08-11T18:17:15;1.65;;;1.48;;
46080;SDS011;31821;51.880;-0.518;2022-08-11T18:20:00;1.77;;;1.40;;
46080;SDS011;31821;51.880;-0.518;2022-08-11T18:22:44;1.45;;;1.33;;
46080;SDS011;31821;51.880;-0.518;2022-08-11T18:25:33;2.13;;;1.45;;
46080;SDS011;31821;51.880;-0.518;2022-08-11T18:28:23;1.67;;;1.48;;
46080;SDS011;31821;51.880;-0.518;2022-08-11T18:31:12;1.73;;;1.63;;
46080;SDS011;31821;51.880;-0.518;2022-08-11T18:34:01;1.83;;;1.38;;
46080;SDS011;31821;51.880;-0.518;2022-08-11T18:37:02;1.52;;;1.23;;
46080;SDS011;31821;51.880;-0.518;2022-08-11T18:40:00;1.55;;;1.33;;
46080;SDS011;31821;51.880;-0.518;2022-08-11T18:42:54;1.60;;;1.40;;
46080;SDS011;31821;51.880;-0.518;2022-08-11T18:45:41;1.40;;;1.30;;
46080;SDS011;31821;51.880;-0.518;2022-08-11T18:48:29;1.52;;;1.42;;
46080;SDS011;31821;51.880;-0.518;2022-08-11T18:51:16;1.60;;;1.50;;
46080;SDS011;31821;51.880;-0.518;2022-08-11T18:54:02;1.60;;;1.50;;
46080;SDS011;31821;51.880;-0.518;2022-08-11T18:56:50;1.58;;;1.30;;
46080;SDS011;31821;51.880;-0.518;2022-08-11T18:59:36;1.52;;;1.42;;
46080;SDS011;31821;51.880;-0.518;2022-08-11T19:02:23;1.70;;;1.42;;
46080;SDS011;31821;51.880;-0.518;2022-08-11T19:05:10;1.83;;;1.60;;
46080;SDS011;31821;51.880;-0.518;2022-08-11T19:07:56;1.90;;;1.50;;
46080;SDS011;31821;51.880;-0.518;2022-08-11T19:10:44;2.47;;;1.50;;
46080;SDS011;31821;51.880;-0.518;2022-08-11T19:13:30;1.90;;;1.55;;
46080;SDS011;31821;51.880;-0.518;2022-08-11T19:16:16;1.60;;;1.50;;
46080;SDS011;31821;51.880;-0.518;2022-08-11T19:19:02;1.60;;;1.33;;
46080;SDS011;31821;51.880;-0.518;2022-08-11T19:21:48;1.70;;;1.50;;
46080;SDS011;31821;51.880;-0.518;2022-08-11T19:24:36;1.65;;;1.55;;
46080;SDS011;31821;51.880;-0.518;2022-08-11T19:27:22;1.50;;;1.33;;
46080;SDS011;31821;51.880;-0.518;2022-08-11T19:30:09;1.70;;;1.60;;
46080;SDS011;31821;51.880;-0.518;2022-08-11T19:32:54;1.63;;;1.52;;
46080;SDS011;31821;51.880;-0.518;2022-08-11T19:35:39;2.00;;;1.50;;
46080;SDS011;31821;51.880;-0.518;2022-08-11T19:38:25;1.80;;;1.65;;
46080;SDS011;31821;51.880;-0.518;2022-08-11T19:41:10;2.08;;;1.50;;